• Join FlightAware (Why Join?)
  • Login
  • US Flag 
10:33PM EST


 

Airport Tracker/Info


-or-


 

Live Flight TrackerFlight Track Log ✈ ASQ4179 ✈ 03-Jul-2013 ✈ KIAH - KCLT

Flight Track Log - Related Links

Times and Time Zones

All times are in EDT time to prevent confusion due to time zone crossing. See the ASQ4179 flight status page for this flight to view local times or setup timezone preferences in your user account.

Time Position Orientation Groundspeed Altitude Reporting Facility
EDT Latitude Longitude Course Direction KTS MPH feet Rate Location/Type
09:19AM 29.9594 -95.3414 90° East 161 185 700  Level Houston Center
09:20AM 29.9161 -95.2817 130° Southeast 232 267 2,400 1,320 Climbing Houston Center
09:21AM 29.8936 -95.2494 129° Southeast 237 273 3,200 1,080 Climbing Houston Center
09:22AM 29.9834 -94.9327 90° East  Level FlightAware Approximate
09:22AM 29.8478 -95.1817 128° Southeast 261 300 4,200  Level Houston Center
09:23AM 29.9834 -94.7992 90° East  Level FlightAware Approximate
09:23AM 29.8017 -95.1131 128° Southeast 268 308 6,600  Level Houston Center
09:24AM 29.9833 -94.6657 90° East  Level FlightAware Approximate
09:24AM 29.8039 -95.0269 88° East 275 316 8,700  Level Houston Center
09:25AM 29.8333 -94.9186 73° East 295 339 10,300 1,140 Climbing Houston Center
09:26AM 29.8608 -94.8150 73° East 334 384 11,100 1,020 Climbing Houston Center
09:27AM 29.8903 -94.7067 73° East 352 405 12,500 1,260 Climbing Houston Center
09:28AM 29.9192 -94.5950 73° East 361 415 13,800 1,200 Climbing Houston Center
09:29AM 29.9492 -94.4825 73° East 367 422 15,000 1,080 Climbing Houston Center
09:30AM 29.9831 -94.3533 73° East 375 432 16,100 1,020 Climbing Houston Center
09:31AM 30.0058 -94.2350 77° East 378 435 17,200 1,020 Climbing Houston Center
09:32AM 30.0197 -94.1119 83° East 387 445 18,300 1,080 Climbing Houston Center
09:33AM 30.0353 -93.9889 82° East 388 447 19,500 1,140 Climbing Houston Center
09:34AM 30.0511 -93.8631 82° East 396 456 20,700 1,080 Climbing Houston Center
09:35AM 30.0664 -93.7361 82° East 402 463 21,800 1,200 Climbing Houston Center
09:36AM 30.0850 -93.5828 82° East 406 467 23,200 1,200 Climbing Houston Center
09:37AM 30.0997 -93.4508 83° East 413 475 24,300 1,020 Climbing Houston Center
09:38AM 30.1150 -93.3203 82° East 421 484 25,300 900 Climbing Houston Center
09:39AM 30.1314 -93.1856 82° East 428 493 26,200 900 Climbing Houston Center
09:40AM 30.1697 -93.0536 71° East 441 507 27,200 960 Climbing Houston Center
09:41AM 30.2342 -92.9358 58° Northeast 440 506 28,200 1,020 Climbing Houston Center
09:42AM 30.3114 -92.7917 58° Northeast 442 509 29,400 1,020 Climbing Houston Center
09:43AM 30.3789 -92.6708 57° Northeast 448 516 30,300 900 Climbing Houston Center
09:44AM 30.4469 -92.5475 57° Northeast 454 522 31,300 960 Climbing Houston Center
09:45AM 30.5133 -92.4194 59° Northeast 451 519 32,400 960 Climbing Houston Center
09:46AM 30.5817 -92.2947 58° Northeast 458 527 33,300 900 Climbing Houston Center
09:47AM 30.6481 -92.1706 58° Northeast 457 526 34,300 780 Climbing Houston Center
09:48AM 30.7153 -92.0461 58° Northeast 458 527 35,000 300 Climbing Houston Center
09:49AM 30.7986 -91.8897 58° Northeast 478 550 35,000  Level Houston Center
09:51AM 30.8706 -91.7553 58° Northeast 491 565 35,000  Level Houston Center
09:52AM 30.9447 -91.6142 58° Northeast 504 580 35,000  Level Houston Center
09:53AM 31.0206 -91.4714 58° Northeast 517 595 35,000  Level Houston Center
09:54AM 31.0953 -91.3314 58° Northeast 516 594 35,000  Level Houston Center
09:55AM 31.1714 -91.1875 58° Northeast 517 595 35,000  Level Houston Center
09:56AM 31.2597 -91.0172 59° Northeast 514 592 35,000  Level Houston Center
09:57AM 31.3333 -90.8744 59° Northeast 513 590 35,000  Level Houston Center
09:58AM 31.4078 -90.7308 59° Northeast 514 592 35,000  Level Houston Center
09:59AM 31.4811 -90.5878 59° Northeast 513 590 35,000  Level Houston Center
10:00AM 31.5547 -90.4447 59° Northeast 513 590 35,000  Level Houston Center
10:01AM 31.6286 -90.3003 59° Northeast 514 592 35,000  Level Houston Center
10:02AM 31.7017 -90.1575 59° Northeast 511 588 35,000  Level Houston Center
10:03AM 31.7744 -90.0142 59° Northeast 509 586 35,000  Level Houston Center
10:04AM 31.8611 -89.8431 59° Northeast 507 583 35,000  Level Houston Center
10:05AM 31.9242 -89.7197 59° Northeast 506 582 35,000  Level Houston Center
10:06AM 32.0094 -89.5514 59° Northeast 504 580 35,000  Level Memphis Center
10:07AM 32.0733 -89.4233 59° Northeast 504 580 35,000  Level Memphis Center
10:08AM 32.1453 -89.2778 60° Northeast 504 580 35,000  Level Memphis Center
10:09AM 32.2150 -89.1369 60° Northeast 504 580 35,000  Level Memphis Center
10:10AM 32.2867 -88.9936 59° Northeast 504 580 35,000  Level Memphis Center
10:11AM 32.3581 -88.8522 59° Northeast 499 574 35,000  Level Memphis Center
10:12AM 32.4272 -88.7058 61° Northeast 499 574 35,000  Level Memphis Center
10:13AM 32.4961 -88.5617 60° Northeast 499 574 35,000  Level Memphis Center
10:14AM 32.5608 -88.4175 62° Northeast 499 574 35,000  Level Memphis Center
10:16AM 32.7197 -88.0828 60° Northeast 484 557 35,000  Level Atlanta Center
10:17AM 32.7850 -87.9328 63° Northeast 491 565 35,000  Level Atlanta Center
10:18AM 32.8439 -87.7919 64° Northeast 485 558 35,000  Level Atlanta Center
10:19AM 32.8878 -87.6453 70° East 474 545 35,000  Level Atlanta Center
10:20AM 32.9297 -87.4961 71° East 466 536 35,000  Level Atlanta Center
10:21AM 32.9692 -87.3517 72° East 459 528 35,000  Level Atlanta Center
10:22AM 33.0086 -87.2019 73° East 459 528 35,000  Level Atlanta Center
10:23AM 33.0433 -87.0619 73° East 459 528 35,000 180 Level Atlanta Center
10:24AM 33.0867 -86.9075 71° East 459 528 35,400 420 Climbing Atlanta Center
10:25AM 33.1297 -86.7525 72° East 458 527 35,900 480 Climbing Atlanta Center
10:26AM 33.1683 -86.6072 72° East 465 535 36,400 480 Climbing Atlanta Center
10:27AM 33.2067 -86.4694 72° East 452 520 36,900 300 Climbing Atlanta Center
10:28AM 33.2431 -86.3189 74° East 452 520 37,000  Climbing Atlanta Center
10:29AM 33.2811 -86.1733 73° East 458 527 37,000  Level Atlanta Center
10:30AM 33.3233 -86.0203 72° East 458 527 37,000  Level Atlanta Center
10:31AM 33.3611 -85.8719 73° East 458 527 37,000  Level Atlanta Center
10:32AM 33.3922 -85.7456 74° East 451 519 37,000  Level Atlanta Center
10:33AM 33.4294 -85.5994 73° East 446 513 37,000  Level Atlanta Center
10:34AM 33.4667 -85.4558 73° East 446 513 37,000  Level Atlanta Center
10:35AM 33.5017 -85.3144 73° East 446 513 37,000  Level Atlanta Center
10:36AM 33.5364 -85.1753 73° East 437 503 37,000  Level Atlanta Center
10:37AM 33.5711 -85.0361 73° East 437 503 37,000  Level Atlanta Center
10:38AM 33.6097 -84.8869 73° East 431 496 37,000  Level Atlanta Center
10:39AM 33.6397 -84.7600 74° East 431 496 37,000 -60 Level Atlanta Center
10:40AM 33.6739 -84.6206 74° East 431 496 36,900  Descending Atlanta Center
10:41AM 33.7119 -84.4858 71° East 431 496 37,000 -240 Climbing Atlanta Center
10:42AM 33.7397 -84.3436 77° East 431 496 36,500 -780 Descending Atlanta Center
10:43AM 33.7775 -84.1839 74° East 459 528 35,500 -780 Descending Atlanta Center
10:44AM 33.8192 -84.0164 73° East 477 549 35,000 -300 Descending Atlanta Center
10:45AM 33.8567 -83.8636 73° East 477 549 35,000  Level Atlanta Center
10:46AM 33.8939 -83.7108 74° East 472 543 35,000 -420 Level Atlanta Center
10:47AM 33.9289 -83.5556 75° East 472 543 34,200 -900 Descending Atlanta Center
10:48AM 33.9825 -83.4125 66° East 472 543 33,300 -960 Descending Atlanta Center
10:49AM 34.0422 -83.2692 63° Northeast 472 543 32,300 -1,020 Descending Atlanta Center
10:50AM 34.1019 -83.1231 64° Northeast 466 536 31,300 -1,020 Descending Atlanta Center
10:51AM 34.1611 -82.9819 63° Northeast 470 541 30,300 -960 Descending Atlanta Center
10:52AM 34.2206 -82.8406 63° Northeast 470 541 29,400 -960 Descending Atlanta Center
10:53AM 34.2753 -82.7014 65° Northeast 465 535 28,400 -900 Descending Atlanta Center
10:54AM 34.3239 -82.5775 65° Northeast 460 529 27,600 -900 Descending Atlanta Center
10:55AM 34.3828 -82.4331 64° Northeast 460 529 26,600 -1,320 Descending Atlanta Center
10:56AM 34.4392 -82.2858 65° Northeast 466 536 25,000 -2,100 Descending Atlanta Center
10:57AM 34.4975 -82.1433 64° Northeast 466 536 22,500 -2,700 Descending Atlanta Center
10:58AM 34.5475 -82.0111 65° Northeast 452 520 19,600 -2,700 Descending Atlanta Center
10:59AM 34.5997 -81.8811 64° Northeast 428 493 17,100 -2,940 Descending Atlanta Center
11:00AM 34.6556 -81.7458 63° Northeast 413 475 13,800 -2,580 Descending Atlanta Center
11:01AM 34.6992 -81.6258 66° East 390 449 12,000 -900 Descending Atlanta Center
11:02AM 34.7372 -81.5414 61° Northeast 351 404 12,000  Level Atlanta Center
11:03AM 34.8044 -81.4561 46° Northeast 325 374 12,000  Level Atlanta Center
11:04AM 34.8631 -81.3758 48° Northeast 325 374 12,000  Level Atlanta Center
11:05AM 34.9219 -81.3003 46° Northeast 312 359 12,000 -360 Level Atlanta Center
11:06AM 34.9828 -81.2222 46° Northeast 312 359 11,300 -900 Descending Atlanta Center
11:07AM 35.0436 -81.1442 46° Northeast 307 353 10,300 -1,020 Descending Atlanta Center
11:08AM 35.1233 -81.0778 34° Northeast 294 338 9,200 -660 Descending Atlanta Center
11:09AM 35.1900 -81.0678 North 289 333 9,000 -660 Descending Atlanta Center
11:10AM 35.2611 -81.0756 355° North 267 307 8,000 -1,500 Descending Atlanta Center
11:11AM 35.3572 -81.0847 356° North 255 293 5,800 -1,800 Descending Atlanta Center
11:12AM 35.3975 -81.0297 48° Northeast 238 274 4,100 -1,500 Descending Atlanta Center
11:13AM 35.3817 -80.9692 108° East 212 244 3,000 -780 Descending Atlanta Center
11:14AM 35.3272 -80.9636 175° South 190 219 2,700 -600 Descending Atlanta Center
11:15AM 35.2833 -80.9628 179° South 153 176 1,900 -840 Descending Atlanta Center